sensor_id;sensor_type;location;lat;lon;timestamp;pressure;altitude;pressure_sealevel;temperature;humidity
50710;BME280;37033;49.994;21.992;2023-05-24T00:01:16;98809.23;;;15.17;75.32
50710;BME280;37033;49.994;21.992;2023-05-24T00:03:54;98808.75;;;15.16;75.40
50710;BME280;37033;49.994;21.992;2023-05-24T00:06:27;98811.27;;;15.15;75.44
50710;BME280;37033;49.994;21.992;2023-05-24T00:08:58;98810.73;;;15.12;75.51
50710;BME280;37033;49.994;21.992;2023-05-24T00:11:29;98810.98;;;15.09;75.45
50710;BME280;37033;49.994;21.992;2023-05-24T00:13:59;98813.42;;;15.05;75.68
50710;BME280;37033;49.994;21.992;2023-05-24T00:16:30;98814.20;;;14.99;75.95
50710;BME280;37033;49.994;21.992;2023-05-24T00:19:01;98811.84;;;14.91;76.27
50710;BME280;37033;49.994;21.992;2023-05-24T00:21:32;98814.02;;;14.83;76.16
50710;BME280;37033;49.994;21.992;2023-05-24T00:24:05;98816.35;;;14.77;76.37
50710;BME280;37033;49.994;21.992;2023-05-24T00:26:36;98820.16;;;14.74;76.40
50710;BME280;37033;49.994;21.992;2023-05-24T00:29:06;98820.38;;;14.72;76.37
50710;BME280;37033;49.994;21.992;2023-05-24T00:31:37;98821.85;;;14.71;76.48
50710;BME280;37033;49.994;21.992;2023-05-24T00:34:08;98825.70;;;14.68;76.76
50710;BME280;37033;49.994;21.992;2023-05-24T00:36:39;98828.30;;;14.64;76.92
50710;BME280;37033;49.994;21.992;2023-05-24T00:39:10;98824.23;;;14.59;76.97
50710;BME280;37033;49.994;21.992;2023-05-24T00:41:40;98825.92;;;14.56;77.03
50710;BME280;37033;49.994;21.992;2023-05-24T00:44:11;98827.73;;;14.54;76.96
50710;BME280;37033;49.994;21.992;2023-05-24T00:46:42;98828.23;;;14.52;77.09
50710;BME280;37033;49.994;21.992;2023-05-24T00:49:13;98831.63;;;14.48;77.52
50710;BME280;37033;49.994;21.992;2023-05-24T00:51:44;98828.83;;;14.41;77.71
50710;BME280;37033;49.994;21.992;2023-05-24T00:54:15;98827.60;;;14.35;77.54
50710;BME280;37033;49.994;21.992;2023-05-24T00:56:46;98825.53;;;14.29;77.65
50710;BME280;37033;49.994;21.992;2023-05-24T00:59:16;98825.00;;;14.25;77.54
50710;BME280;37033;49.994;21.992;2023-05-24T01:01:49;98823.82;;;14.21;77.83
50710;BME280;37033;49.994;21.992;2023-05-24T01:04:20;98821.92;;;14.19;77.77
50710;BME280;37033;49.994;21.992;2023-05-24T01:07:08;98823.84;;;14.16;78.11
50710;BME280;37033;49.994;21.992;2023-05-24T01:09:50;98828.77;;;14.12;78.26
50710;BME280;37033;49.994;21.992;2023-05-24T01:12:27;98825.77;;;14.09;78.16
50710;BME280;37033;49.994;21.992;2023-05-24T01:15:08;98824.27;;;14.07;78.28
50710;BME280;37033;49.994;21.992;2023-05-24T01:17:47;98820.80;;;14.07;78.31
50710;BME280;37033;49.994;21.992;2023-05-24T01:20:23;98825.94;;;14.03;78.42
50710;BME280;37033;49.994;21.992;2023-05-24T01:23:05;98826.95;;;14.02;78.53
50710;BME280;37033;49.994;21.992;2023-05-24T01:25:52;98823.03;;;13.96;78.62
50710;BME280;37033;49.994;21.992;2023-05-24T01:28:27;98823.03;;;13.92;78.61
50710;BME280;37033;49.994;21.992;2023-05-24T01:31:00;98822.11;;;13.92;78.57
50710;BME280;37033;49.994;21.992;2023-05-24T01:33:32;98821.73;;;13.91;78.77
50710;BME280;37033;49.994;21.992;2023-05-24T01:36:04;98818.02;;;13.92;78.65
50710;BME280;37033;49.994;21.992;2023-05-24T01:38:34;98818.71;;;13.93;78.63
50710;BME280;37033;49.994;21.992;2023-05-24T01:41:14;98817.02;;;13.93;78.76
50710;BME280;37033;49.994;21.992;2023-05-24T01:43:54;98817.13;;;13.93;78.71
50710;BME280;37033;49.994;21.992;2023-05-24T01:46:35;98821.67;;;13.90;78.88
50710;BME280;37033;49.994;21.992;2023-05-24T01:49:15;98828.67;;;13.86;78.99
50710;BME280;37033;49.994;21.992;2023-05-24T01:51:52;98826.13;;;13.82;79.25
50710;BME280;37033;49.994;21.992;2023-05-24T01:54:27;98825.20;;;13.77;79.42
50710;BME280;37033;49.994;21.992;2023-05-24T01:57:03;98824.72;;;13.72;79.70
50710;BME280;37033;49.994;21.992;2023-05-24T01:59:35;98822.55;;;13.68;79.74
50710;BME280;37033;49.994;21.992;2023-05-24T02:02:07;98824.73;;;13.66;79.76
50710;BME280;37033;49.994;21.992;2023-05-24T02:04:38;98825.34;;;13.66;79.87
50710;BME280;37033;49.994;21.992;2023-05-24T02:07:09;98823.27;;;13.65;79.86
50710;BME280;37033;49.994;21.992;2023-05-24T02:09:40;98823.91;;;13.65;79.86
50710;BME280;37033;49.994;21.992;2023-05-24T02:12:12;98824.13;;;13.66;79.88
50710;BME280;37033;49.994;21.992;2023-05-24T02:14:43;98823.09;;;13.67;79.95
50710;BME280;37033;49.994;21.992;2023-05-24T02:17:14;98823.64;;;13.67;79.91
50710;BME280;37033;49.994;21.992;2023-05-24T02:19:46;98824.90;;;13.64;79.92
50710;BME280;37033;49.994;21.992;2023-05-24T02:22:17;98824.95;;;13.63;80.00
50710;BME280;37033;49.994;21.992;2023-05-24T02:24:50;98826.70;;;13.64;80.00
50710;BME280;37033;49.994;21.992;2023-05-24T02:27:21;98826.33;;;13.61;79.98
50710;BME280;37033;49.994;21.992;2023-05-24T02:29:52;98830.48;;;13.60;80.25
50710;BME280;37033;49.994;21.992;2023-05-24T02:32:23;98831.41;;;13.61;80.28
50710;BME280;37033;49.994;21.992;2023-05-24T02:34:53;98831.24;;;13.61;80.34
50710;BME280;37033;49.994;21.992;2023-05-24T02:37:24;98834.46;;;13.60;80.41
50710;BME280;37033;49.994;21.992;2023-05-24T02:39:55;98830.91;;;13.60;80.82
50710;BME280;37033;49.994;21.992;2023-05-24T02:42:25;98835.62;;;13.57;80.69
50710;BME280;37033;49.994;21.992;2023-05-24T02:45:12;98839.05;;;13.57;81.19
50710;BME280;37033;49.994;21.992;2023-05-24T02:47:43;98840.38;;;13.53;81.15
50710;BME280;37033;49.994;21.992;2023-05-24T02:50:15;98839.77;;;13.51;81.07
50710;BME280;37033;49.994;21.992;2023-05-24T02:52:46;98842.17;;;13.50;81.43
50710;BME280;37033;49.994;21.992;2023-05-24T02:55:16;98839.98;;;13.50;81.33
50710;BME280;37033;49.994;21.992;2023-05-24T02:57:47;98843.91;;;13.51;81.33
50710;BME280;37033;49.994;21.992;2023-05-24T03:00:19;98848.17;;;13.52;81.58
50710;BME280;37033;49.994;21.992;2023-05-24T03:02:50;98852.82;;;13.50;81.44
50710;BME280;37033;49.994;21.992;2023-05-24T03:05:21;98852.55;;;13.51;81.60
50710;BME280;37033;49.994;21.992;2023-05-24T03:07:52;98851.99;;;13.52;81.53
50710;BME280;37033;49.994;21.992;2023-05-24T03:10:22;98854.61;;;13.53;81.67
50710;BME280;37033;49.994;21.992;2023-05-24T03:12:53;98855.10;;;13.53;81.83
50710;BME280;37033;49.994;21.992;2023-05-24T03:15:24;98857.19;;;13.51;81.88
50710;BME280;37033;49.994;21.992;2023-05-24T03:17:55;98857.46;;;13.50;81.85
50710;BME280;37033;49.994;21.992;2023-05-24T03:20:25;98857.19;;;13.50;81.95
50710;BME280;37033;49.994;21.992;2023-05-24T03:22:56;98860.68;;;13.52;82.07
50710;BME280;37033;49.994;21.992;2023-05-24T03:25:27;98860.73;;;13.53;82.12
50710;BME280;37033;49.994;21.992;2023-05-24T03:27:58;98862.48;;;13.54;82.21
50710;BME280;37033;49.994;21.992;2023-05-24T03:30:30;98863.23;;;13.54;82.24
50710;BME280;37033;49.994;21.992;2023-05-24T03:33:01;98863.95;;;13.53;82.33
50710;BME280;37033;49.994;21.992;2023-05-24T03:35:32;98864.29;;;13.53;82.53
50710;BME280;37033;49.994;21.992;2023-05-24T03:38:03;98862.37;;;13.54;82.45
50710;BME280;37033;49.994;21.992;2023-05-24T03:40:33;98866.25;;;13.54;82.69
50710;BME280;37033;49.994;21.992;2023-05-24T03:43:05;98864.45;;;13.55;82.85
50710;BME280;37033;49.994;21.992;2023-05-24T03:45:35;98866.63;;;13.56;82.88
50710;BME280;37033;49.994;21.992;2023-05-24T03:48:06;98867.13;;;13.59;82.87
50710;BME280;37033;49.994;21.992;2023-05-24T03:50:37;98871.16;;;13.60;83.06
50710;BME280;37033;49.994;21.992;2023-05-24T03:53:08;98872.31;;;13.62;82.97
50710;BME280;37033;49.994;21.992;2023-05-24T03:55:38;98874.44;;;13.65;82.93
50710;BME280;37033;49.994;21.992;2023-05-24T03:58:09;98873.55;;;13.67;83.07
50710;BME280;37033;49.994;21.992;2023-05-24T04:00:40;98881.42;;;13.69;83.19
50710;BME280;37033;49.994;21.992;2023-05-24T04:03:11;98882.46;;;13.69;83.34
50710;BME280;37033;49.994;21.992;2023-05-24T04:05:43;98881.87;;;13.69;83.56
50710;BME280;37033;49.994;21.992;2023-05-24T04:08:13;98881.92;;;13.68;83.55
50710;BME280;37033;49.994;21.992;2023-05-24T04:10:45;98883.88;;;13.68;83.83
50710;BME280;37033;49.994;21.992;2023-05-24T04:13:16;98886.45;;;13.69;83.77
50710;BME280;37033;49.994;21.992;2023-05-24T04:15:46;98885.14;;;13.70;83.70
50710;BME280;37033;49.994;21.992;2023-05-24T04:18:17;98891.09;;;13.73;83.78
50710;BME280;37033;49.994;21.992;2023-05-24T04:20:48;98892.17;;;13.76;83.93
50710;BME280;37033;49.994;21.992;2023-05-24T04:23:19;98893.72;;;13.79;84.13
50710;BME280;37033;49.994;21.992;2023-05-24T04:25:50;98897.86;;;13.82;83.96
50710;BME280;37033;49.994;21.992;2023-05-24T04:28:20;98904.24;;;13.86;84.04
50710;BME280;37033;49.994;21.992;2023-05-24T04:30:52;98898.83;;;13.89;83.94
50710;BME280;37033;49.994;21.992;2023-05-24T04:33:25;98906.92;;;13.93;84.01
50710;BME280;37033;49.994;21.992;2023-05-24T04:35:56;98907.96;;;13.96;84.40
50710;BME280;37033;49.994;21.992;2023-05-24T04:38:30;98911.61;;;13.99;84.30
50710;BME280;37033;49.994;21.992;2023-05-24T04:41:03;98917.67;;;14.03;84.40
50710;BME280;37033;49.994;21.992;2023-05-24T04:43:34;98919.24;;;14.08;84.53
50710;BME280;37033;49.994;21.992;2023-05-24T04:46:05;98923.23;;;14.12;84.65
50710;BME280;37033;49.994;21.992;2023-05-24T04:48:36;98921.31;;;14.16;84.68
50710;BME280;37033;49.994;21.992;2023-05-24T04:51:07;98921.30;;;14.21;84.77
50710;BME280;37033;49.994;21.992;2023-05-24T04:53:37;98926.14;;;14.26;84.85
50710;BME280;37033;49.994;21.992;2023-05-24T04:56:08;98926.90;;;14.32;84.83
50710;BME280;37033;49.994;21.992;2023-05-24T04:58:43;98929.73;;;14.37;84.86
50710;BME280;37033;49.994;21.992;2023-05-24T05:01:13;98936.12;;;14.42;84.92
50710;BME280;37033;49.994;21.992;2023-05-24T05:03:44;98931.02;;;14.47;84.96
50710;BME280;37033;49.994;21.992;2023-05-24T05:06:15;98934.06;;;14.52;85.10
50710;BME280;37033;49.994;21.992;2023-05-24T05:08:45;98933.58;;;14.57;85.34
50710;BME280;37033;49.994;21.992;2023-05-24T05:11:17;98939.14;;;14.63;85.23
50710;BME280;37033;49.994;21.992;2023-05-24T05:13:48;98939.40;;;14.69;85.32
50710;BME280;37033;49.994;21.992;2023-05-24T05:16:19;98943.21;;;14.76;85.16
50710;BME280;37033;49.994;21.992;2023-05-24T05:18:50;98942.56;;;14.85;85.44
50710;BME280;37033;49.994;21.992;2023-05-24T05:21:20;98944.54;;;14.93;85.46
50710;BME280;37033;49.994;21.992;2023-05-24T05:23:51;98949.92;;;15.02;85.57
50710;BME280;37033;49.994;21.992;2023-05-24T05:26:23;98951.03;;;15.11;85.52
50710;BME280;37033;49.994;21.992;2023-05-24T05:28:55;98955.20;;;15.19;85.38
50710;BME280;37033;49.994;21.992;2023-05-24T05:31:26;98959.91;;;15.28;85.50
50710;BME280;37033;49.994;21.992;2023-05-24T05:33:57;98966.55;;;15.37;85.53
50710;BME280;37033;49.994;21.992;2023-05-24T05:36:27;98963.96;;;15.45;85.52
50710;BME280;37033;49.994;21.992;2023-05-24T05:38:58;98970.05;;;15.54;85.53
50710;BME280;37033;49.994;21.992;2023-05-24T05:41:29;98970.91;;;15.65;85.58
50710;BME280;37033;49.994;21.992;2023-05-24T05:44:00;98970.74;;;15.74;85.74
50710;BME280;37033;49.994;21.992;2023-05-24T05:46:31;98974.83;;;15.85;85.85
50710;BME280;37033;49.994;21.992;2023-05-24T05:49:01;98981.71;;;15.96;86.28
50710;BME280;37033;49.994;21.992;2023-05-24T05:51:32;98983.86;;;16.06;86.15
50710;BME280;37033;49.994;21.992;2023-05-24T05:54:03;98985.92;;;16.16;86.02
50710;BME280;37033;49.994;21.992;2023-05-24T05:56:33;98990.28;;;16.26;85.60
50710;BME280;37033;49.994;21.992;2023-05-24T05:59:09;98992.00;;;16.35;85.92
50710;BME280;37033;49.994;21.992;2023-05-24T06:01:40;98994.55;;;16.43;85.70
50710;BME280;37033;49.994;21.992;2023-05-24T06:04:11;98998.83;;;16.49;85.61
50710;BME280;37033;49.994;21.992;2023-05-24T06:06:42;98998.48;;;16.56;85.44
50710;BME280;37033;49.994;21.992;2023-05-24T06:09:13;99003.66;;;16.63;85.36
50710;BME280;37033;49.994;21.992;2023-05-24T06:11:44;99009.38;;;16.70;85.20
50710;BME280;37033;49.994;21.992;2023-05-24T06:14:15;99013.42;;;16.75;84.97
50710;BME280;37033;49.994;21.992;2023-05-24T06:16:48;99021.21;;;16.83;85.05
50710;BME280;37033;49.994;21.992;2023-05-24T06:19:20;99017.42;;;16.89;84.95
50710;BME280;37033;49.994;21.992;2023-05-24T06:21:51;99024.52;;;16.96;84.84
50710;BME280;37033;49.994;21.992;2023-05-24T06:24:22;99029.35;;;17.02;84.61
50710;BME280;37033;49.994;21.992;2023-05-24T06:26:53;99030.14;;;17.09;84.57
50710;BME280;37033;49.994;21.992;2023-05-24T06:29:24;99030.02;;;17.15;84.45
50710;BME280;37033;49.994;21.992;2023-05-24T06:31:54;99033.33;;;17.22;84.22
50710;BME280;37033;49.994;21.992;2023-05-24T06:34:25;99030.35;;;17.31;84.13
50710;BME280;37033;49.994;21.992;2023-05-24T06:36:58;99030.48;;;17.39;83.92
50710;BME280;37033;49.994;21.992;2023-05-24T06:39:28;99034.83;;;17.47;83.43
50710;BME280;37033;49.994;21.992;2023-05-24T06:41:59;99036.23;;;17.56;82.97
50710;BME280;37033;49.994;21.992;2023-05-24T06:44:30;99038.05;;;17.67;82.90
50710;BME280;37033;49.994;21.992;2023-05-24T06:47:03;99037.48;;;17.81;82.54
50710;BME280;37033;49.994;21.992;2023-05-24T06:49:34;99041.07;;;17.95;81.73
50710;BME280;37033;49.994;21.992;2023-05-24T06:52:05;99044.89;;;18.12;80.72
50710;BME280;37033;49.994;21.992;2023-05-24T06:54:37;99047.33;;;18.27;80.47
50710;BME280;37033;49.994;21.992;2023-05-24T06:57:07;99047.80;;;18.45;80.16
50710;BME280;37033;49.994;21.992;2023-05-24T06:59:38;99052.25;;;18.67;79.60
50710;BME280;37033;49.994;21.992;2023-05-24T07:02:09;99048.70;;;18.88;78.68
50710;BME280;37033;49.994;21.992;2023-05-24T07:04:40;99052.63;;;19.10;78.51
50710;BME280;37033;49.994;21.992;2023-05-24T07:07:11;99057.65;;;19.31;77.30
50710;BME280;37033;49.994;21.992;2023-05-24T07:09:41;99052.88;;;19.46;76.32
50710;BME280;37033;49.994;21.992;2023-05-24T07:12:12;99057.30;;;19.66;76.17
50710;BME280;37033;49.994;21.992;2023-05-24T07:14:43;99062.30;;;19.90;74.73
50710;BME280;37033;49.994;21.992;2023-05-24T07:17:14;99058.55;;;20.06;73.13
50710;BME280;37033;49.994;21.992;2023-05-24T07:19:45;99058.86;;;20.23;72.61
50710;BME280;37033;49.994;21.992;2023-05-24T07:22:16;99058.38;;;20.41;72.08
50710;BME280;37033;49.994;21.992;2023-05-24T07:24:46;99066.02;;;20.63;71.49
50710;BME280;37033;49.994;21.992;2023-05-24T07:27:17;99068.75;;;20.78;69.42
50710;BME280;37033;49.994;21.992;2023-05-24T07:29:48;99071.45;;;20.80;68.69
50710;BME280;37033;49.994;21.992;2023-05-24T07:32:18;99073.66;;;20.80;69.14
50710;BME280;37033;49.994;21.992;2023-05-24T07:34:49;99079.98;;;20.77;69.06
50710;BME280;37033;49.994;21.992;2023-05-24T07:37:20;99083.20;;;20.81;69.51
50710;BME280;37033;49.994;21.992;2023-05-24T07:39:52;99092.25;;;20.92;69.36
50710;BME280;37033;49.994;21.992;2023-05-24T07:42:22;99091.94;;;21.00;67.69
50710;BME280;37033;49.994;21.992;2023-05-24T07:44:53;99093.52;;;20.95;66.86
50710;BME280;37033;49.994;21.992;2023-05-24T07:47:24;99093.67;;;20.84;66.90
50710;BME280;37033;49.994;21.992;2023-05-24T07:49:56;99093.54;;;20.87;67.89
50710;BME280;37033;49.994;21.992;2023-05-24T07:52:26;99102.39;;;20.97;67.26
50710;BME280;37033;49.994;21.992;2023-05-24T07:54:57;99102.28;;;20.97;66.32
50710;BME280;37033;49.994;21.992;2023-05-24T07:57:28;99104.17;;;20.93;66.11
50710;BME280;37033;49.994;21.992;2023-05-24T07:59:59;99106.55;;;20.90;66.52
50710;BME280;37033;49.994;21.992;2023-05-24T08:02:35;99106.45;;;20.93;66.20
50710;BME280;37033;49.994;21.992;2023-05-24T08:05:07;99110.61;;;20.89;65.66
50710;BME280;37033;49.994;21.992;2023-05-24T08:07:38;99114.66;;;20.87;65.56
50710;BME280;37033;49.994;21.992;2023-05-24T08:10:11;99117.19;;;20.81;65.14
50710;BME280;37033;49.994;21.992;2023-05-24T08:12:42;99119.26;;;20.69;65.42
50710;BME280;37033;49.994;21.992;2023-05-24T08:15:13;99120.51;;;20.65;65.94
50710;BME280;37033;49.994;21.992;2023-05-24T08:17:44;99125.73;;;20.68;65.95
50710;BME280;37033;49.994;21.992;2023-05-24T08:20:15;99127.60;;;20.76;65.90
50710;BME280;37033;49.994;21.992;2023-05-24T08:22:46;99130.45;;;20.81;65.56
50710;BME280;37033;49.994;21.992;2023-05-24T08:25:17;99140.80;;;20.87;65.14
50710;BME280;37033;49.994;21.992;2023-05-24T08:27:49;99142.31;;;20.86;65.14
50710;BME280;37033;49.994;21.992;2023-05-24T08:30:20;99145.68;;;20.90;65.10
50710;BME280;37033;49.994;21.992;2023-05-24T08:32:52;99148.11;;;20.91;65.03
50710;BME280;37033;49.994;21.992;2023-05-24T08:35:23;99150.48;;;20.93;65.22
50710;BME280;37033;49.994;21.992;2023-05-24T08:37:53;99150.77;;;21.09;65.45
50710;BME280;37033;49.994;21.992;2023-05-24T08:40:25;99150.36;;;21.28;64.34
50710;BME280;37033;49.994;21.992;2023-05-24T08:42:56;99148.52;;;21.29;63.74
50710;BME280;37033;49.994;21.992;2023-05-24T08:45:31;99151.12;;;21.29;63.93
50710;BME280;37033;49.994;21.992;2023-05-24T08:48:03;99154.48;;;21.25;63.70
50710;BME280;37033;49.994;21.992;2023-05-24T08:50:35;99149.48;;;21.20;63.34
50710;BME280;37033;49.994;21.992;2023-05-24T08:53:06;99153.64;;;21.26;63.86
50710;BME280;37033;49.994;21.992;2023-05-24T08:55:38;99152.00;;;21.31;63.61
50710;BME280;37033;49.994;21.992;2023-05-24T08:58:11;99149.91;;;21.37;63.64
50710;BME280;37033;49.994;21.992;2023-05-24T09:00:42;99150.08;;;21.40;63.60
50710;BME280;37033;49.994;21.992;2023-05-24T09:03:13;99150.81;;;21.53;64.13
50710;BME280;37033;49.994;21.992;2023-05-24T09:05:44;99153.48;;;21.60;63.24
50710;BME280;37033;49.994;21.992;2023-05-24T09:08:15;99151.72;;;21.60;62.76
50710;BME280;37033;49.994;21.992;2023-05-24T09:10:48;99153.57;;;21.57;62.86
50710;BME280;37033;49.994;21.992;2023-05-24T09:13:19;99155.88;;;21.56;62.50
50710;BME280;37033;49.994;21.992;2023-05-24T09:15:52;99151.77;;;21.56;62.69
50710;BME280;37033;49.994;21.992;2023-05-24T09:18:23;99152.04;;;21.59;62.29
50710;BME280;37033;49.994;21.992;2023-05-24T09:20:54;99152.30;;;21.63;62.03
50710;BME280;37033;49.994;21.992;2023-05-24T09:23:26;99151.23;;;21.73;62.43
50710;BME280;37033;49.994;21.992;2023-05-24T09:25:57;99155.31;;;21.94;61.85
50710;BME280;37033;49.994;21.992;2023-05-24T09:28:32;99149.75;;;22.13;61.41
50710;BME280;37033;49.994;21.992;2023-05-24T09:31:04;99153.20;;;22.29;60.66
50710;BME280;37033;49.994;21.992;2023-05-24T09:33:35;99148.91;;;22.41;60.38
50710;BME280;37033;49.994;21.992;2023-05-24T09:36:07;99151.27;;;22.57;59.56
50710;BME280;37033;49.994;21.992;2023-05-24T09:38:37;99147.17;;;22.74;58.60
50710;BME280;37033;49.994;21.992;2023-05-24T09:41:08;99150.80;;;22.86;58.56
50710;BME280;37033;49.994;21.992;2023-05-24T09:43:49;99149.87;;;23.02;58.30
50710;BME280;37033;49.994;21.992;2023-05-24T09:46:20;99151.20;;;23.19;57.92
50710;BME280;37033;49.994;21.992;2023-05-24T09:48:57;99157.73;;;23.36;56.79
50710;BME280;37033;49.994;21.992;2023-05-24T09:51:29;99155.07;;;23.43;57.00
50710;BME280;37033;49.994;21.992;2023-05-24T09:54:01;99162.16;;;23.67;57.27
50710;BME280;37033;49.994;21.992;2023-05-24T09:56:33;99166.91;;;23.88;57.14
50710;BME280;37033;49.994;21.992;2023-05-24T09:59:08;99166.08;;;24.07;56.62
50710;BME280;37033;49.994;21.992;2023-05-24T10:01:39;99169.54;;;24.31;56.09
50710;BME280;37033;49.994;21.992;2023-05-24T10:04:09;99174.49;;;24.39;55.22
50710;BME280;37033;49.994;21.992;2023-05-24T10:06:42;99178.00;;;24.35;54.57
50710;BME280;37033;49.994;21.992;2023-05-24T10:09:14;99182.91;;;24.24;55.02
50710;BME280;37033;49.994;21.992;2023-05-24T10:11:46;99190.16;;;24.16;54.80
50710;BME280;37033;49.994;21.992;2023-05-24T10:14:18;99187.78;;;24.04;55.03
50710;BME280;37033;49.994;21.992;2023-05-24T10:16:49;99189.10;;;24.13;55.46
50710;BME280;37033;49.994;21.992;2023-05-24T10:19:20;99190.74;;;24.30;55.53
50710;BME280;37033;49.994;21.992;2023-05-24T10:21:52;99189.38;;;24.52;55.22
50710;BME280;37033;49.994;21.992;2023-05-24T10:24:28;99197.17;;;24.60;54.65
50710;BME280;37033;49.994;21.992;2023-05-24T10:27:05;99196.83;;;24.59;54.52
50710;BME280;37033;49.994;21.992;2023-05-24T10:29:46;99189.33;;;24.72;55.29
50710;BME280;37033;49.994;21.992;2023-05-24T10:32:23;99187.88;;;24.84;54.59
50710;BME280;37033;49.994;21.992;2023-05-24T10:34:59;99193.74;;;24.84;54.64
50710;BME280;37033;49.994;21.992;2023-05-24T10:37:32;99197.45;;;24.70;54.37
50710;BME280;37033;49.994;21.992;2023-05-24T10:40:03;99194.89;;;24.63;54.63
50710;BME280;37033;49.994;21.992;2023-05-24T10:42:35;99198.84;;;24.69;54.34
50710;BME280;37033;49.994;21.992;2023-05-24T10:45:30;99195.16;;;24.77;54.88
50710;BME280;37033;49.994;21.992;2023-05-24T10:50:54;99202.55;;;24.90;53.99
50710;BME280;37033;49.994;21.992;2023-05-24T10:53:27;99203.30;;;24.95;54.45
50710;BME280;37033;49.994;21.992;2023-05-24T10:55:59;99205.15;;;25.10;54.13
50710;BME280;37033;49.994;21.992;2023-05-24T10:58:58;99207.56;;;25.13;53.04
50710;BME280;37033;49.994;21.992;2023-05-24T11:01:31;99214.88;;;24.99;53.29
50710;BME280;37033;49.994;21.992;2023-05-24T11:04:09;99216.39;;;24.91;53.39
50710;BME280;37033;49.994;21.992;2023-05-24T11:06:53;99214.42;;;24.85;53.45
50710;BME280;37033;49.994;21.992;2023-05-24T11:09:24;99210.81;;;24.97;53.59
50710;BME280;37033;49.994;21.992;2023-05-24T11:11:59;99210.61;;;24.97;52.77
50710;BME280;37033;49.994;21.992;2023-05-24T11:14:32;99213.95;;;24.89;52.92
50710;BME280;37033;49.994;21.992;2023-05-24T11:17:03;99218.79;;;24.83;52.91
50710;BME280;37033;49.994;21.992;2023-05-24T11:19:37;99212.94;;;24.75;53.04
50710;BME280;37033;49.994;21.992;2023-05-24T11:22:08;99208.40;;;24.81;53.63
50710;BME280;37033;49.994;21.992;2023-05-24T11:24:41;99210.42;;;24.86;53.29
50710;BME280;37033;49.994;21.992;2023-05-24T11:27:13;99213.36;;;24.71;52.63
50710;BME280;37033;49.994;21.992;2023-05-24T11:29:45;99214.88;;;24.58;53.23
50710;BME280;37033;49.994;21.992;2023-05-24T11:32:17;99214.36;;;24.37;53.06
50710;BME280;37033;49.994;21.992;2023-05-24T11:34:48;99211.26;;;24.22;53.40
50710;BME280;37033;49.994;21.992;2023-05-24T11:37:19;99212.17;;;24.28;54.17
50710;BME280;37033;49.994;21.992;2023-05-24T11:39:51;99209.51;;;24.43;53.73
50710;BME280;37033;49.994;21.992;2023-05-24T11:42:23;99205.56;;;24.46;53.70
50710;BME280;37033;49.994;21.992;2023-05-24T11:44:54;99207.58;;;24.42;53.75
50710;BME280;37033;49.994;21.992;2023-05-24T11:47:24;99211.23;;;24.32;53.39
50710;BME280;37033;49.994;21.992;2023-05-24T11:49:55;99210.21;;;24.26;53.96
50710;BME280;37033;49.994;21.992;2023-05-24T11:52:27;99213.12;;;24.37;54.31
50710;BME280;37033;49.994;21.992;2023-05-24T11:54:57;99210.02;;;24.48;53.57
50710;BME280;37033;49.994;21.992;2023-05-24T11:57:33;99204.80;;;24.48;53.28
50710;BME280;37033;49.994;21.992;2023-05-24T12:00:08;99203.85;;;24.34;53.09
50710;BME280;37033;49.994;21.992;2023-05-24T12:02:46;99200.63;;;24.29;53.13
50710;BME280;37033;49.994;21.992;2023-05-24T12:05:18;99195.92;;;24.37;53.55
50710;BME280;37033;49.994;21.992;2023-05-24T12:08:01;99194.54;;;24.60;53.61
50710;BME280;37033;49.994;21.992;2023-05-24T12:10:35;99193.17;;;24.62;53.25
50710;BME280;37033;49.994;21.992;2023-05-24T12:13:18;99202.38;;;24.59;53.29
50710;BME280;37033;49.994;21.992;2023-05-24T12:15:51;99206.16;;;24.35;52.54
50710;BME280;37033;49.994;21.992;2023-05-24T12:18:24;99202.56;;;24.17;53.33
50710;BME280;37033;49.994;21.992;2023-05-24T12:20:55;99193.94;;;24.36;53.74
50710;BME280;37033;49.994;21.992;2023-05-24T12:23:26;99200.10;;;24.62;53.14
50710;BME280;37033;49.994;21.992;2023-05-24T12:26:00;99199.59;;;24.68;52.81
50710;BME280;37033;49.994;21.992;2023-05-24T12:28:35;99207.35;;;24.53;52.22
50710;BME280;37033;49.994;21.992;2023-05-24T12:31:07;99204.34;;;24.36;52.70
50710;BME280;37033;49.994;21.992;2023-05-24T12:33:38;99202.71;;;24.46;52.82
50710;BME280;37033;49.994;21.992;2023-05-24T12:36:10;99201.00;;;24.52;52.49
50710;BME280;37033;49.994;21.992;2023-05-24T12:38:41;99202.32;;;24.62;52.45
50710;BME280;37033;49.994;21.992;2023-05-24T12:41:12;99205.02;;;24.60;52.25
50710;BME280;37033;49.994;21.992;2023-05-24T12:43:43;99204.46;;;24.56;52.27
50710;BME280;37033;49.994;21.992;2023-05-24T12:46:14;99195.95;;;24.68;52.27
50710;BME280;37033;49.994;21.992;2023-05-24T12:48:45;99196.85;;;24.82;52.16
50710;BME280;37033;49.994;21.992;2023-05-24T12:51:16;99200.64;;;24.82;51.57
50710;BME280;37033;49.994;21.992;2023-05-24T12:53:46;99203.46;;;24.72;51.53
50710;BME280;37033;49.994;21.992;2023-05-24T12:56:17;99202.39;;;24.66;51.65
50710;BME280;37033;49.994;21.992;2023-05-24T12:58:48;99203.81;;;24.75;51.75
50710;BME280;37033;49.994;21.992;2023-05-24T13:01:18;99201.28;;;24.88;51.31
50710;BME280;37033;49.994;21.992;2023-05-24T13:03:49;99194.41;;;24.91;51.13
50710;BME280;37033;49.994;21.992;2023-05-24T13:06:20;99199.88;;;24.84;51.21
50710;BME280;37033;49.994;21.992;2023-05-24T13:08:51;99193.44;;;24.80;51.08
50710;BME280;37033;49.994;21.992;2023-05-24T13:11:22;99197.75;;;24.94;51.43
50710;BME280;37033;49.994;21.992;2023-05-24T13:13:54;99190.68;;;25.07;50.94
50710;BME280;37033;49.994;21.992;2023-05-24T13:16:24;99186.64;;;25.14;50.84
50710;BME280;37033;49.994;21.992;2023-05-24T13:18:55;99189.08;;;25.24;50.66